Time;durP1;ratioP1;P1;durP2;ratioP2;P2;SDS_P1;SDS_P2;PMS_P1;PMS_P2;Temp;Humidity;BMP_temperature;BMP_pressure;BME280_temperature;BME280_humidity;BME280_pressure;Samples;Min_cycle;Max_cycle;Signal;HPM_P1;HPM_P2
2021/07/29 00:00:54;;;;;;;6.07;4.90;;;;;;;16.80;88.74;99113.94;5114212;28;20297;-77
2021/07/29 00:03:21;;;;;;;7.13;5.00;;;;;;;16.77;88.19;99112.34;5113407;28;20189;-77
2021/07/29 00:05:49;;;;;;;5.30;4.63;;;;;;;16.93;88.00;99113.69;5114269;28;20199;-77
2021/07/29 00:08:17;;;;;;;6.65;4.90;;;;;;;17.07;86.91;99113.25;5114201;28;20531;-76
2021/07/29 00:10:44;;;;;;;8.00;4.85;;;;;;;17.16;86.19;99106.09;5113535;28;20199;-76
2021/07/29 00:13:11;;;;;;;8.85;4.65;;;;;;;17.24;85.16;99107.09;5113877;28;20275;-76
2021/07/29 00:15:38;;;;;;;5.10;4.43;;;;;;;17.26;84.82;99101.53;5113799;28;20222;-76
2021/07/29 00:20:50;;;;;;;5.70;4.75;;;;;;;17.34;84.49;99095.34;5113832;28;20648;-76
2021/07/29 00:23:17;;;;;;;10.25;6.38;;;;;;;17.37;84.23;99100.53;5113587;28;20197;-77
2021/07/29 00:25:43;;;;;;;5.20;4.70;;;;;;;17.48;82.21;99103.09;5113853;28;20698;-75
2021/07/29 00:28:10;;;;;;;9.38;4.63;;;;;;;17.40;83.26;99098.34;5113110;28;20625;-76
2021/07/29 00:30:36;;;;;;;6.20;4.75;;;;;;;17.56;81.46;99097.75;5113319;28;20280;-77
2021/07/29 00:33:03;;;;;;;6.05;5.05;;;;;;;17.54;81.65;99097.06;5113672;28;20197;-76
2021/07/29 00:35:30;;;;;;;8.65;4.25;;;;;;;17.60;81.13;99101.91;5113636;28;20295;-76
2021/07/29 00:38:02;;;;;;;7.20;4.88;;;;;;;17.60;81.70;99101.91;5113328;28;20544;-76
2021/07/29 00:40:29;;;;;;;6.50;4.75;;;;;;;17.42;82.94;99098.22;5113532;28;20311;-75
2021/07/29 00:42:56;;;;;;;6.97;4.32;;;;;;;17.22;84.31;99097.38;5113525;28;20262;-76
2021/07/29 00:45:23;;;;;;;4.80;4.35;;;;;;;17.29;84.31;99088.47;5113500;28;20274;-77
2021/07/29 00:47:49;;;;;;;8.32;5.43;;;;;;;17.29;84.20;99103.97;5113257;28;20220;-76
2021/07/29 00:50:16;;;;;;;6.20;5.28;;;;;;;17.22;84.54;99095.50;5112993;28;20190;-76
2021/07/29 00:52:46;;;;;;;7.03;4.68;;;;;;;17.22;84.63;99092.78;5113020;28;20630;-76
2021/07/29 00:55:15;;;;;;;9.70;5.65;;;;;;;17.09;85.26;99097.66;5113215;28;20200;-77
2021/07/29 00:57:43;;;;;;;6.07;5.03;;;;;;;17.04;85.80;99098.09;5113326;28;20623;-77
2021/07/29 01:00:11;;;;;;;7.30;5.10;;;;;;;16.93;86.26;99087.34;5112423;28;20185;-77
2021/07/29 01:02:38;;;;;;;11.43;5.75;;;;;;;16.96;85.96;99087.06;5113070;28;20279;-77
2021/07/29 01:05:07;;;;;;;5.68;5.05;;;;;;;17.07;83.73;99088.78;5112774;28;20271;-77
2021/07/29 01:07:34;;;;;;;6.75;5.22;;;;;;;17.35;81.86;99087.06;5113004;28;20676;-76
2021/07/29 01:10:01;;;;;;;5.68;5.07;;;;;;;17.16;84.38;99087.06;5113014;28;20201;-76
2021/07/29 01:12:29;;;;;;;12.07;5.47;;;;;;;17.18;83.93;99083.19;5112581;28;20239;-76
2021/07/29 01:14:55;;;;;;;9.02;5.10;;;;;;;17.06;85.66;99084.34;5113032;28;20214;-75
2021/07/29 01:17:22;;;;;;;7.40;5.10;;;;;;;16.84;87.65;99078.16;5112628;28;20218;-76
2021/07/29 01:19:48;;;;;;;8.18;5.95;;;;;;;16.72;88.79;99079.28;5112573;28;20265;-76
2021/07/29 01:22:16;;;;;;;8.18;4.78;;;;;;;16.65;89.12;99081.69;5112805;28;20278;-75
2021/07/29 01:24:43;;;;;;;9.43;5.30;;;;;;;16.70;89.21;99086.72;5112973;28;20206;-76
2021/07/29 01:27:09;;;;;;;9.52;4.88;;;;;;;16.77;88.44;99076.13;5112297;28;20211;-77
2021/07/29 01:29:36;;;;;;;8.48;5.60;;;;;;;16.71;88.50;99076.69;5112880;28;20226;-77
2021/07/29 01:32:03;;;;;;;6.30;4.90;;;;;;;16.77;87.95;99081.56;5112303;28;20226;-76
2021/07/29 01:34:30;;;;;;;6.35;5.38;;;;;;;16.60;88.90;99083.13;5112605;28;20677;-76
2021/07/29 01:36:56;;;;;;;9.52;4.90;;;;;;;16.67;88.58;99074.28;5112169;28;20285;-77
2021/07/29 01:39:24;;;;;;;5.30;4.70;;;;;;;16.60;88.15;99075.84;5112248;28;20286;-77
2021/07/29 01:41:51;;;;;;;6.07;5.32;;;;;;;16.62;88.17;99082.00;5112555;28;20578;-77
2021/07/29 01:44:17;;;;;;;7.10;5.00;;;;;;;16.74;87.83;99090.88;5112642;28;20285;-76
2021/07/29 01:46:44;;;;;;;9.32;5.63;;;;;;;16.80;86.82;99081.31;5112195;28;20244;-77
2021/07/29 01:49:10;;;;;;;8.40;5.30;;;;;;;16.92;86.44;99092.94;5112597;28;20180;-76
2021/07/29 01:51:37;;;;;;;5.90;5.20;;;;;;;16.87;86.08;99088.78;5112218;28;20199;-77
2021/07/29 01:54:04;;;;;;;6.53;5.00;;;;;;;16.88;85.69;99084.19;5112557;28;20194;-76
2021/07/29 01:56:32;;;;;;;7.43;4.70;;;;;;;17.10;84.88;99091.22;5112511;28;20183;-77
2021/07/29 01:59:04;;;;;;;8.77;5.70;;;;;;;17.07;84.58;99089.66;5112108;28;20231;-76
2021/07/29 02:01:31;;;;;;;9.13;5.95;;;;;;;17.06;84.41;99090.66;5112783;28;20199;-76
2021/07/29 02:03:58;;;;;;;8.52;5.60;;;;;;;17.05;84.23;99093.53;5112508;28;20188;-76
2021/07/29 02:06:25;;;;;;;7.75;4.65;;;;;;;17.10;84.16;99091.22;5111943;28;20199;-76
2021/07/29 02:08:51;;;;;;;5.65;4.90;;;;;;;17.10;83.66;99096.66;5112378;28;20544;-77
2021/07/29 02:11:18;;;;;;;5.85;5.07;;;;;;;17.16;83.26;99093.34;5112269;28;20227;-77
2021/07/29 02:13:46;;;;;;;5.90;4.95;;;;;;;17.30;82.40;99098.38;5115584;28;20202;-76
2021/07/29 02:16:14;;;;;;;8.15;5.45;;;;;;;17.46;81.76;99095.06;5116469;28;21009;-77
2021/07/29 02:18:40;;;;;;;5.70;5.05;;;;;;;17.23;82.12;99099.06;5116556;28;20307;-75
2021/07/29 02:21:09;;;;;;;8.43;5.05;;;;;;;17.34;81.92;99096.22;5116314;28;20230;-75
2021/07/29 02:23:36;;;;;;;6.20;4.80;;;;;;;17.29;81.96;99098.50;5116518;28;20217;-75
2021/07/29 02:26:02;;;;;;;7.07;5.18;;;;;;;17.48;80.05;99103.09;5115994;28;20298;-75
2021/07/29 02:28:29;;;;;;;7.78;5.90;;;;;;;17.55;80.04;99100.63;5115996;28;20628;-75
2021/07/29 02:30:57;;;;;;;8.10;5.07;;;;;;;17.57;79.86;99095.88;5116276;28;20188;-75
2021/07/29 02:33:24;;;;;;;6.88;5.20;;;;;;;17.55;80.46;99097.91;5116082;28;20293;-75
2021/07/29 02:35:51;;;;;;;6.93;5.43;;;;;;;17.51;80.78;99097.34;5115631;28;20186;-75
2021/07/29 02:38:18;;;;;;;5.50;4.95;;;;;;;17.53;80.48;99089.91;5115639;28;20182;-75
2021/07/29 02:40:44;;;;;;;7.53;5.15;;;;;;;17.58;80.11;99084.88;5115702;28;20279;-76
2021/07/29 02:43:11;;;;;;;9.23;4.93;;;;;;;17.39;82.03;99090.34;5116153;28;20213;-76
2021/07/29 02:45:37;;;;;;;5.35;4.68;;;;;;;17.29;82.64;99093.91;5116283;28;20198;-75
2021/07/29 02:48:05;;;;;;;6.85;5.00;;;;;;;17.33;83.07;99089.06;5115586;28;20334;-76
2021/07/29 02:50:32;;;;;;;9.15;5.90;;;;;;;17.42;82.86;99085.47;5115563;28;20218;-76
2021/07/29 02:52:59;;;;;;;6.43;5.70;;;;;;;17.42;82.62;99087.34;5115313;28;20224;-77
2021/07/29 02:55:26;;;;;;;5.45;4.95;;;;;;;17.52;81.70;99088.16;5115783;28;20221;-76
2021/07/29 02:57:53;;;;;;;5.40;4.13;;;;;;;17.78;78.70;99093.00;5115474;28;20283;-76
2021/07/29 03:00:19;;;;;;;6.95;4.20;;;;;;;18.07;76.75;99085.63;5115886;28;20953;-76
2021/07/29 03:02:46;;;;;;;4.65;4.15;;;;;;;18.18;75.51;99090.03;5115198;28;20209;-76
2021/07/29 03:05:14;;;;;;;8.18;4.70;;;;;;;18.32;74.76;99097.69;5115762;28;20224;-76
2021/07/29 03:07:40;;;;;;;4.32;3.92;;;;;;;18.40;74.31;99094.19;5115588;28;20300;-76
2021/07/29 03:10:08;;;;;;;7.53;3.90;;;;;;;18.46;73.62;99112.69;5115832;28;20181;-76
2021/07/29 03:12:34;;;;;;;4.72;4.25;;;;;;;18.49;73.43;99100.63;5115173;28;20339;-77
2021/07/29 03:15:01;;;;;;;11.27;4.32;;;;;;;18.49;73.19;99111.53;5115665;28;20848;-76
2021/07/29 03:17:27;;;;;;;13.40;6.97;;;;;;;18.58;73.48;99107.88;5116179;28;20307;-77
2021/07/29 03:19:54;;;;;;;4.80;4.20;;;;;;;18.61;73.10;99102.16;5115561;28;20284;-76
2021/07/29 03:22:22;;;;;;;5.78;4.25;;;;;;;18.56;72.96;99107.16;5115232;28;20614;-75
2021/07/29 03:24:48;;;;;;;6.10;4.30;;;;;;;18.62;72.66;99111.16;5115228;28;20233;-76
2021/07/29 03:27:15;;;;;;;8.50;3.70;;;;;;;18.67;72.63;99109.69;5115293;28;20266;-76
2021/07/29 03:29:42;;;;;;;5.68;3.63;;;;;;;18.71;72.10;99115.72;5114906;28;20216;-75
2021/07/29 03:32:09;;;;;;;5.97;4.18;;;;;;;18.73;71.96;99109.09;5115247;28;20215;-76
2021/07/29 03:34:35;;;;;;;4.63;3.78;;;;;;;18.72;71.97;99111.97;5115027;28;20197;-77
2021/07/29 03:37:02;;;;;;;5.63;4.25;;;;;;;18.68;71.83;99107.84;5114998;28;20693;-77
2021/07/29 03:39:30;;;;;;;4.45;3.80;;;;;;;18.70;71.53;99111.25;5114860;28;20547;-77
2021/07/29 03:41:56;;;;;;;4.50;3.65;;;;;;;18.71;71.31;99111.09;5114516;28;20191;-76
2021/07/29 03:44:23;;;;;;;6.10;4.05;;;;;;;18.70;71.41;99111.25;5114290;28;20249;-75
2021/07/29 03:46:50;;;;;;;7.47;3.65;;;;;;;18.65;71.10;99108.13;5114710;28;20206;-76
2021/07/29 03:49:16;;;;;;;4.30;3.90;;;;;;;18.74;71.08;99109.94;5114522;28;20553;-75
2021/07/29 03:51:43;;;;;;;5.28;3.40;;;;;;;18.71;70.90;99108.38;5114713;28;20190;-76
2021/07/29 03:54:09;;;;;;;5.40;3.80;;;;;;;18.63;71.40;99111.03;5113818;28;20681;-75
2021/07/29 03:56:37;;;;;;;6.00;3.75;;;;;;;18.62;70.66;99113.91;5114266;28;20647;-76
2021/07/29 03:59:04;;;;;;;4.75;3.90;;;;;;;18.67;70.86;99117.00;5114607;28;20185;-76
2021/07/29 04:01:30;;;;;;;4.72;3.50;;;;;;;18.76;70.58;99119.69;5114162;28;20273;-76
2021/07/29 04:03:57;;;;;;;5.13;3.95;;;;;;;18.71;70.63;99113.84;5114929;28;20654;-75
2021/07/29 04:06:23;;;;;;;7.05;4.10;;;;;;;18.81;70.45;99115.66;5114078;28;20228;-76
2021/07/29 04:08:50;;;;;;;7.40;3.25;;;;;;;18.62;70.81;99131.13;5114121;28;20212;-75
2021/07/29 04:11:17;;;;;;;5.40;3.85;;;;;;;18.66;70.42;99121.63;5114325;28;20320;-76
2021/07/29 04:13:45;;;;;;;6.43;4.53;;;;;;;18.67;70.67;99117.88;5114202;28;20199;-76
2021/07/29 04:16:12;;;;;;;6.95;3.90;;;;;;;18.76;70.05;99127.00;5113707;28;20291;-75
2021/07/29 04:18:38;;;;;;;4.93;3.58;;;;;;;18.86;70.02;99126.97;5114124;28;20620;-75
2021/07/29 04:21:05;;;;;;;4.63;3.83;;;;;;;18.76;69.72;99121.56;5113812;28;20221;-74
2021/07/29 04:23:31;;;;;;;9.40;3.65;;;;;;;18.86;69.75;99125.13;5113998;28;20676;-73
2021/07/29 04:25:58;;;;;;;6.05;3.80;;;;;;;18.66;70.29;99128.94;5113977;28;20194;-74
2021/07/29 04:28:24;;;;;;;5.20;4.03;;;;;;;18.66;70.21;99146.16;5113365;28;20226;-75
2021/07/29 04:30:52;;;;;;;4.05;3.65;;;;;;;18.80;69.72;99136.63;5113834;28;20189;-74
2021/07/29 04:33:19;;;;;;;4.57;3.90;;;;;;;18.72;70.09;99131.94;5113715;28;20204;-74
2021/07/29 04:35:45;;;;;;;4.55;4.15;;;;;;;18.80;69.84;99131.19;5112955;28;20186;-74
2021/07/29 04:38:12;;;;;;;3.78;3.42;;;;;;;18.87;69.52;99145.91;5113657;28;20524;-73
2021/07/29 04:40:39;;;;;;;4.05;3.17;;;;;;;18.73;70.22;99136.34;5113549;28;20627;-74
2021/07/29 04:43:05;;;;;;;6.15;3.80;;;;;;;18.88;69.42;99146.78;5113431;28;20208;-74
2021/07/29 04:45:32;;;;;;;6.97;3.70;;;;;;;18.74;69.91;99154.41;5112607;28;20182;-75
2021/07/29 04:48:00;;;;;;;5.60;3.58;;;;;;;18.74;69.87;99148.97;5113323;28;20230;-73
2021/07/29 04:50:27;;;;;;;5.85;3.65;;;;;;;18.77;69.74;99156.03;5113122;28;20177;-74
2021/07/29 04:52:53;;;;;;;4.20;3.38;;;;;;;18.82;69.49;99164.63;5113075;28;20190;-74
2021/07/29 04:55:20;;;;;;;4.30;3.45;;;;;;;18.75;69.74;99156.16;5113207;28;20198;-74
2021/07/29 04:57:47;;;;;;;5.40;3.83;;;;;;;18.87;69.36;99161.44;5112931;28;20346;-75
2021/07/29 05:00:14;;;;;;;6.68;3.55;;;;;;;18.79;68.54;99166.78;5112855;28;20246;-75
2021/07/29 05:02:40;;;;;;;6.65;3.30;;;;;;;18.58;69.88;99164.28;5113118;28;20183;-74
2021/07/29 05:05:10;;;;;;;4.40;3.25;;;;;;;18.57;70.10;99162.59;5112801;28;20212;-74
2021/07/29 05:07:37;;;;;;;6.40;3.45;;;;;;;18.68;69.26;99167.84;5112862;28;20284;-75
2021/07/29 05:10:04;;;;;;;4.20;3.50;;;;;;;18.59;69.53;99171.44;5112527;28;20206;-75
2021/07/29 05:12:30;;;;;;;5.72;4.25;;;;;;;18.48;69.46;99165.19;5112630;28;20233;-75
2021/07/29 05:14:57;;;;;;;5.95;4.20;;;;;;;18.46;70.16;99169.94;5112524;28;20288;-74
2021/07/29 05:17:24;;;;;;;13.60;5.00;;;;;;;18.45;70.36;99168.22;5112560;28;20191;-74
2021/07/29 05:19:51;;;;;;;4.60;4.13;;;;;;;18.46;69.34;99175.38;5112863;28;20241;-74
2021/07/29 05:22:46;;;;;;;5.07;3.58;;;;;;;18.48;69.49;99178.81;5113761;28;20185;-75
2021/07/29 05:25:12;;;;;;;5.28;4.32;;;;;;;18.79;68.34;99172.22;5104353;28;20917;-75
2021/07/29 05:27:39;;;;;;;4.75;3.42;;;;;;;18.85;67.93;99175.22;5112709;28;20186;-74
2021/07/29 05:30:06;;;;;;;4.60;4.10;;;;;;;18.87;67.45;99177.81;5112712;28;20220;-75
2021/07/29 05:32:33;;;;;;;3.70;3.20;;;;;;;18.87;67.66;99172.34;5112608;28;20182;-75
2021/07/29 05:35:00;;;;;;;4.85;3.67;;;;;;;18.85;67.45;99175.22;5111660;28;20292;-75
2021/07/29 05:37:26;;;;;;;5.63;3.55;;;;;;;18.60;68.32;99176.75;5112158;28;20201;-75
2021/07/29 05:39:57;;;;;;;6.00;3.40;;;;;;;18.62;68.52;99173.88;5112411;28;20189;-75
2021/07/29 05:42:24;;;;;;;4.28;3.30;;;;;;;18.59;68.69;99177.78;5111683;28;20276;-75
2021/07/29 05:44:51;;;;;;;8.00;4.10;;;;;;;18.47;69.16;99178.97;5112021;28;20201;-75
2021/07/29 05:47:20;;;;;;;7.38;4.03;;;;;;;18.50;69.06;99178.69;5112272;28;20201;-75
2021/07/29 05:49:46;;;;;;;5.22;3.80;;;;;;;18.59;68.70;99171.44;5111923;28;20276;-74
2021/07/29 05:52:13;;;;;;;7.93;3.80;;;;;;;18.72;68.33;99170.09;5111484;28;20201;-75
2021/07/29 05:54:40;;;;;;;4.43;3.70;;;;;;;18.83;67.60;99182.69;5112138;28;20192;-75
2021/07/29 05:57:08;;;;;;;4.68;3.65;;;;;;;18.85;67.46;99175.22;5111751;28;20293;-76
2021/07/29 05:59:34;;;;;;;4.63;3.85;;;;;;;18.88;67.31;99169.47;5111665;28;20288;-75
2021/07/29 06:02:01;;;;;;;4.00;3.10;;;;;;;19.09;66.67;99174.66;5111955;28;20267;-75
2021/07/29 06:04:28;;;;;;;4.15;3.50;;;;;;;18.93;66.88;99175.31;5112341;28;20199;-76
2021/07/29 06:06:55;;;;;;;6.45;3.53;;;;;;;18.74;67.30;99189.03;5111822;28;20189;-76
2021/07/29 06:09:21;;;;;;;7.13;3.50;;;;;;;18.62;68.14;99190.25;5111681;28;20198;-76
2021/07/29 06:11:48;;;;;;;5.90;3.70;;;;;;;18.74;67.59;99186.28;5112006;28;20236;-76
2021/07/29 06:14:16;;;;;;;4.55;3.42;;;;;;;18.55;68.00;99185.38;5112304;28;20550;-77
2021/07/29 06:16:42;;;;;;;8.23;3.28;;;;;;;18.42;68.29;99195.75;5111962;28;20287;-75
2021/07/29 06:19:09;;;;;;;5.22;3.35;;;;;;;18.66;67.64;99194.38;5111895;28;20191;-76
2021/07/29 06:21:37;;;;;;;3.35;3.05;;;;;;;18.73;67.11;99190.91;5111698;28;20186;-75
2021/07/29 06:24:04;;;;;;;6.85;3.13;;;;;;;18.68;66.68;99203.28;5111740;28;20246;-75
2021/07/29 06:26:31;;;;;;;4.95;3.30;;;;;;;18.64;67.29;99205.44;5111947;28;20191;-75
2021/07/29 06:28:58;;;;;;;3.95;2.70;;;;;;;18.65;67.30;99204.41;5111493;28;20225;-76
2021/07/29 06:31:26;;;;;;;6.05;3.15;;;;;;;18.89;66.49;99203.91;5111653;28;20190;-76
2021/07/29 06:33:53;;;;;;;5.40;3.50;;;;;;;19.10;65.74;99210.97;5111703;28;20200;-76
2021/07/29 06:36:19;;;;;;;4.88;2.40;;;;;;;19.24;64.73;99209.59;5111663;28;20275;-75
2021/07/29 06:38:46;;;;;;;4.90;2.80;;;;;;;19.29;64.58;99210.00;5111336;28;20286;-75
2021/07/29 06:41:12;;;;;;;6.28;3.35;;;;;;;19.49;64.17;99210.69;5111859;28;20187;-75
2021/07/29 06:43:39;;;;;;;6.13;3.10;;;;;;;19.62;63.03;99205.69;5111893;28;20199;-75
2021/07/29 06:46:06;;;;;;;4.43;3.00;;;;;;;19.64;62.74;99209.13;5112014;28;20208;-75
2021/07/29 06:48:36;;;;;;;4.78;2.90;;;;;;;19.47;62.87;99212.72;5111691;28;20288;-75
2021/07/29 06:51:03;;;;;;;5.85;3.60;;;;;;;19.67;62.40;99214.31;5111772;28;20190;-75
2021/07/29 06:53:30;;;;;;;4.63;2.95;;;;;;;19.77;62.19;99227.91;5111665;28;20207;-75
2021/07/29 06:55:58;;;;;;;4.65;3.42;;;;;;;19.87;61.78;99214.13;5111752;28;20207;-75
2021/07/29 06:58:25;;;;;;;6.00;3.60;;;;;;;19.99;61.48;99229.28;5112401;28;20190;-75
2021/07/29 07:00:52;;;;;;;6.18;3.13;;;;;;;19.95;61.15;99228.72;5114795;28;20192;-74
2021/07/29 07:03:19;;;;;;;6.43;3.00;;;;;;;20.04;61.37;99221.47;5115052;28;20237;-75
2021/07/29 07:05:47;;;;;;;8.52;3.40;;;;;;;20.31;60.33;99227.81;5115147;28;20277;-75
2021/07/29 07:08:14;;;;;;;6.10;3.80;;;;;;;20.67;59.09;99238.63;5115504;28;20654;-75
2021/07/29 07:10:41;;;;;;;5.55;3.65;;;;;;;20.95;58.08;99234.66;5114676;28;20222;-74
2021/07/29 07:13:08;;;;;;;5.10;3.25;;;;;;;21.03;57.80;99234.72;5114975;28;20192;-75
2021/07/29 07:15:35;;;;;;;7.07;3.80;;;;;;;21.16;57.39;99238.84;5115166;28;20193;-74
2021/07/29 07:18:01;;;;;;;9.23;3.63;;;;;;;21.14;57.58;99240.91;5114867;28;20959;-75
2021/07/29 07:20:28;;;;;;;6.40;3.17;;;;;;;20.95;57.61;99242.88;5115365;28;20996;-74
2021/07/29 07:22:56;;;;;;;5.53;3.57;;;;;;;20.89;58.56;99254.47;5114782;28;20907;-74
2021/07/29 07:25:23;;;;;;;8.37;3.47;;;;;;;21.37;57.06;99247.50;5114939;28;20445;-74
2021/07/29 07:27:49;;;;;;;6.23;2.90;;;;;;;21.61;56.03;99243.09;5114750;28;20611;-74
2021/07/29 07:30:16;;;;;;;6.43;2.93;;;;;;;21.72;55.50;99255.63;5113999;28;20464;-74
2021/07/29 07:32:42;;;;;;;3.07;2.77;;;;;;;21.24;57.03;99252.56;5114912;28;20467;-75
2021/07/29 07:35:10;;;;;;;3.50;3.10;;;;;;;21.20;56.92;99246.56;5114466;28;20471;-75
2021/07/29 07:37:39;;;;;;;8.70;3.53;;;;;;;21.51;56.14;99236.94;5114498;28;20425;-73
2021/07/29 07:40:08;;;;;;;6.67;2.90;;;;;;;21.33;56.25;99251.59;5114596;28;20494;-74
2021/07/29 07:42:35;;;;;;;9.50;3.80;;;;;;;21.09;57.17;99252.34;5114435;28;20445;-74
2021/07/29 07:45:02;;;;;;;5.97;3.90;;;;;;;21.38;56.20;99254.66;5114661;28;20771;-74
2021/07/29 07:47:32;;;;;;;4.83;3.00;;;;;;;21.24;56.27;99260.78;5114145;28;20441;-75
2021/07/29 07:49:59;;;;;;;5.90;2.90;;;;;;;20.78;57.92;99255.66;5113836;28;20484;-75
2021/07/29 07:52:25;;;;;;;4.93;2.60;;;;;;;21.36;56.50;99258.59;5114505;28;20985;-74
2021/07/29 07:54:52;;;;;;;4.20;2.80;;;;;;;21.24;55.63;99258.06;5114575;28;20517;-74
2021/07/29 07:57:20;;;;;;;4.17;2.90;;;;;;;21.17;56.68;99257.00;5113667;28;20919;-75
2021/07/29 07:59:47;;;;;;;3.23;2.57;;;;;;;21.23;56.54;99240.78;5113912;28;20421;-74
2021/07/29 08:02:13;;;;;;;4.90;3.50;;;;;;;21.13;57.00;99256.47;5114132;28;20787;-74
2021/07/29 08:04:40;;;;;;;4.80;2.90;;;;;;;21.11;57.15;99246.72;5114055;28;20437;-74
2021/07/29 08:07:07;;;;;;;5.57;3.03;;;;;;;21.61;55.69;99252.19;5113672;28;20457;-74
2021/07/29 08:09:34;;;;;;;4.43;2.97;;;;;;;21.33;56.18;99253.47;5112603;28;20546;-75
2021/07/29 08:12:00;;;;;;;4.77;3.17;;;;;;;21.45;55.99;99244.78;5113360;28;20479;-74
2021/07/29 08:14:28;;;;;;;3.80;2.93;;;;;;;21.75;54.65;99244.31;5114007;28;20542;-75
2021/07/29 08:16:55;;;;;;;4.47;2.80;;;;;;;21.94;53.89;99254.13;5113938;28;20885;-74
2021/07/29 08:19:25;;;;;;;5.73;2.30;;;;;;;21.93;53.85;99252.38;5113826;28;20509;-74
2021/07/29 08:21:52;;;;;;;5.47;3.10;;;;;;;22.10;54.28;99247.78;5113571;28;20466;-74
2021/07/29 08:24:18;;;;;;;6.17;3.10;;;;;;;21.91;53.60;99247.09;5113760;28;20478;-74
2021/07/29 08:26:45;;;;;;;4.57;2.60;;;;;;;21.83;53.83;99252.56;5112916;28;20923;-75
2021/07/29 08:29:11;;;;;;;8.07;3.10;;;;;;;21.99;53.38;99254.44;5113252;28;20464;-74
2021/07/29 08:31:39;;;;;;;3.83;3.37;;;;;;;22.02;53.14;99257.69;5113336;28;20464;-74
2021/07/29 08:34:06;;;;;;;10.07;9.27;;;;;;;22.17;53.20;99251.53;5112912;28;20486;-74
2021/07/29 08:36:33;;;;;;;6.53;2.33;;;;;;;22.14;51.79;99260.97;5113399;28;20470;-74
2021/07/29 08:38:59;;;;;;;4.30;2.93;;;;;;;22.13;51.58;99255.66;5113655;28;20421;-76
2021/07/29 08:41:26;;;;;;;3.83;3.43;;;;;;;21.89;52.83;99256.50;5113122;28;20476;-74
2021/07/29 08:43:52;;;;;;;6.47;2.90;;;;;;;22.20;52.42;99259.41;5113465;28;20421;-74
2021/07/29 08:46:20;;;;;;;3.97;2.53;;;;;;;22.36;51.46;99262.16;5113597;28;20451;-75
2021/07/29 08:48:50;;;;;;;7.40;3.70;;;;;;;22.72;50.99;99255.41;5113089;28;20534;-73
2021/07/29 08:51:17;;;;;;;8.00;3.30;;;;;;;23.09;49.57;99249.34;5112872;28;20895;-75
2021/07/29 08:53:44;;;;;;;6.67;2.57;;;;;;;22.57;49.95;99258.03;5112760;28;20435;-74
2021/07/29 08:56:13;;;;;;;4.03;2.37;;;;;;;22.29;49.97;99255.66;5113053;28;20944;-75
2021/07/29 08:58:39;;;;;;;3.37;2.60;;;;;;;22.21;50.37;99244.69;5113124;28;20425;-75
2021/07/29 09:01:09;;;;;;;4.73;3.00;;;;;;;22.47;50.21;99256.31;5113134;28;20414;-74
2021/07/29 09:03:36;;;;;;;8.23;3.13;;;;;;;22.86;49.46;99254.69;5113105;28;20441;-75
2021/07/29 09:06:06;;;;;;;3.57;2.70;;;;;;;22.47;48.70;99256.31;5112606;28;20437;-76
2021/07/29 09:08:44;;;;;;;5.77;3.10;;;;;;;22.19;49.26;99255.81;5112553;28;20437;-75
2021/07/29 09:11:29;;;;;;;3.20;2.30;;;;;;;22.18;49.25;99258.72;5112487;28;20810;-74
2021/07/29 09:14:04;;;;;;;3.47;2.40;;;;;;;22.25;49.35;99257.03;5112404;28;20421;-74
2021/07/29 09:16:33;;;;;;;3.80;2.60;;;;;;;22.47;49.35;99258.22;5112822;28;20769;-75
2021/07/29 09:19:00;;;;;;;5.07;2.77;;;;;;;22.83;47.93;99264.13;5113000;28;20485;-74
2021/07/29 09:21:28;;;;;;;5.07;2.50;;;;;;;22.78;48.75;99257.47;5112059;28;20512;-76
2021/07/29 09:24:06;;;;;;;4.37;2.97;;;;;;;23.34;47.52;99252.81;5113244;28;20428;-75
2021/07/29 09:26:59;;;;;;;5.20;2.47;;;;;;;22.84;47.66;99256.78;5113001;28;20441;-75
2021/07/29 09:29:27;;;;;;;4.10;2.20;;;;;;;22.42;47.39;99255.16;5092412;28;20975;-76
2021/07/29 09:32:06;;;;;;;8.47;2.60;;;;;;;22.30;47.70;99254.66;5092022;28;20920;-76
2021/07/29 09:34:46;;;;;;;2.20;2.00;;;;;;;22.63;47.42;99254.56;5091731;28;20432;-75
2021/07/29 09:37:15;;;;;;;4.10;3.53;;;;;;;22.78;46.94;99251.97;5101256;28;20429;-75
2021/07/29 09:39:42;;;;;;;3.90;2.17;;;;;;;23.05;46.81;99254.31;5112355;28;20942;-76
2021/07/29 09:42:18;;;;;;;3.00;2.40;;;;;;;23.26;46.59;99250.94;5112400;28;20508;-76
2021/07/29 09:44:46;;;;;;;3.83;2.47;;;;;;;23.25;46.27;99235.50;5111652;28;20483;-75
2021/07/29 09:47:13;;;;;;;4.40;2.43;;;;;;;22.41;46.65;99253.41;5112308;28;20903;-76
2021/07/29 09:49:40;;;;;;;2.90;2.63;;;;;;;22.61;46.91;99254.78;5112208;28;20480;-75
2021/07/29 09:52:08;;;;;;;4.40;2.60;;;;;;;22.61;46.78;99248.41;5111790;28;20427;-75
2021/07/29 09:54:37;;;;;;;3.53;2.70;;;;;;;22.63;47.04;99247.19;5109784;28;20441;-75
2021/07/29 09:57:04;;;;;;;3.03;2.60;;;;;;;21.99;48.79;99257.19;5111744;28;20478;-75
2021/07/29 09:59:31;;;;;;;3.10;2.10;;;;;;;22.06;49.32;99256.31;5111822;28;20465;-76
2021/07/29 10:02:00;;;;;;;3.67;2.20;;;;;;;21.70;49.53;99239.34;5111868;28;20437;-76
2021/07/29 10:04:34;;;;;;;4.47;3.00;;;;;;;21.59;49.87;99229.56;5111813;28;20421;-76
2021/07/29 10:07:07;;;;;;;3.40;2.43;;;;;;;21.83;49.49;99247.94;5111668;28;20991;-75
2021/07/29 10:09:44;;;;;;;4.67;2.60;;;;;;;22.22;48.48;99230.81;5111563;28;20520;-75
2021/07/29 10:12:12;;;;;;;3.30;2.27;;;;;;;22.41;48.61;99231.47;5111428;28;20459;-75
2021/07/29 10:14:46;;;;;;;2.50;2.30;;;;;;;23.25;46.54;99229.19;5111718;28;20971;-76
2021/07/29 10:17:13;;;;;;;4.47;2.63;;;;;;;23.31;45.77;99232.06;5111749;28;20457;-75
2021/07/29 10:20:19;;;;;;;3.77;2.90;;;;;;;23.30;43.99;99226.72;5111496;28;20482;-74
2021/07/29 10:22:47;;;;;;;2.90;2.57;;;;;;;23.97;42.89;99226.13;5111350;28;20464;-74
2021/07/29 10:25:15;;;;;;;2.50;2.20;;;;;;;24.18;42.73;99238.34;5111440;28;20428;-76
2021/07/29 10:28:02;;;;;;;2.60;2.37;;;;;;;24.12;42.96;99227.00;5111432;28;20512;-76
2021/07/29 10:30:36;;;;;;;3.67;2.70;;;;;;;24.03;43.60;99230.88;5111298;28;20567;-75
2021/07/29 10:33:20;;;;;;;2.60;2.27;;;;;;;24.14;43.51;99235.94;5112193;28;20454;-76
2021/07/29 10:35:46;;;;;;;3.90;2.77;;;;;;;23.98;43.59;99236.09;5115723;28;20428;-75
2021/07/29 10:38:14;;;;;;;3.00;2.37;;;;;;;23.29;44.96;99234.13;5115724;28;20845;-74
2021/07/29 10:40:43;;;;;;;3.13;2.37;;;;;;;22.87;45.26;99221.56;5115504;28;20441;-75
2021/07/29 10:43:38;;;;;;;5.77;3.20;;;;;;;22.87;45.28;99224.31;5115614;28;20778;-75
2021/07/29 10:46:06;;;;;;;3.67;2.93;;;;;;;23.11;45.18;99239.03;5115672;28;20451;-75
2021/07/29 10:49:14;;;;;;;5.63;2.70;;;;;;;23.26;45.15;99228.97;5115164;28;20454;-75
2021/07/29 10:52:08;;;;;;;2.60;2.33;;;;;;;23.46;45.19;99228.53;5115176;28;20504;-76
2021/07/29 10:54:36;;;;;;;2.97;2.30;;;;;;;23.08;45.29;99226.47;5115377;28;20843;-75
2021/07/29 10:57:06;;;;;;;4.53;2.83;;;;;;;22.84;45.37;99241.16;5115425;28;20798;-74
2021/07/29 10:59:33;;;;;;;2.30;2.10;;;;;;;22.07;47.16;99233.38;5115058;28;20417;-75
2021/07/29 11:02:02;;;;;;;5.53;2.17;;;;;;;22.17;47.38;99233.19;5115117;28;20421;-76
2021/07/29 11:04:30;;;;;;;3.93;2.50;;;;;;;22.87;46.15;99226.22;5115164;28;20454;-74
2021/07/29 11:07:00;;;;;;;4.83;2.67;;;;;;;23.24;45.75;99221.94;5114152;28;20489;-75
2021/07/29 11:09:29;;;;;;;3.83;2.60;;;;;;;23.21;44.37;99234.16;5115031;28;20447;-75
2021/07/29 11:11:56;;;;;;;5.30;2.20;;;;;;;22.78;44.75;99225.38;5114318;28;20537;-74
2021/07/29 11:14:26;;;;;;;3.07;2.67;;;;;;;22.97;43.42;99224.09;5115063;28;20777;-74
2021/07/29 11:16:57;;;;;;;2.90;2.60;;;;;;;22.77;43.05;99217.31;5114994;28;20414;-74
2021/07/29 11:19:24;;;;;;;4.13;2.60;;;;;;;22.48;42.95;99230.63;5115191;28;20781;-75
2021/07/29 11:22:02;;;;;;;3.27;2.70;;;;;;;22.33;44.06;99223.28;5115363;28;20782;-75
2021/07/29 11:24:29;;;;;;;2.40;1.97;;;;;;;21.92;45.35;99223.28;5114552;28;20417;-74
2021/07/29 11:26:56;;;;;;;2.50;2.30;;;;;;;22.19;44.80;99231.16;5114379;28;20525;-75
2021/07/29 11:29:24;;;;;;;2.53;2.27;;;;;;;22.42;44.11;99219.50;5114698;28;20428;-75
2021/07/29 11:31:53;;;;;;;2.90;2.67;;;;;;;23.08;43.60;99214.66;5114459;28;20466;-74
2021/07/29 11:34:19;;;;;;;3.00;2.67;;;;;;;23.29;42.93;99217.66;5114235;28;20436;-75
2021/07/29 11:36:52;;;;;;;4.43;2.50;;;;;;;23.39;42.62;99217.41;5114566;28;20891;-75
2021/07/29 11:39:19;;;;;;;3.57;2.27;;;;;;;22.75;43.41;99213.91;5114053;28;20428;-75
2021/07/29 11:41:52;;;;;;;3.50;2.13;;;;;;;22.47;44.58;99228.03;5114263;28;20472;-74